Time;durP1;ratioP1;P1;durP2;ratioP2;P2;SDS_P1;SDS_P2;PMS_P1;PMS_P2;Temp;Humidity;BMP_temperature;BMP_pressure;BME280_temperature;BME280_humidity;BME280_pressure;Samples;Min_cycle;Max_cycle;Signal;HPM_P1;HPM_P2
2022/04/07 00:00:50;;;;;;;;;;;22.40;48.50;;;;;;6278542;28;20147;-43
2022/04/07 00:03:52;;;;;;;8.57;2.33;;;22.40;48.50;;;;;;6290342;28;19927;-42
2022/04/07 00:06:54;;;;;;;7.90;2.45;;;22.40;48.40;;;;;;6299831;27;21279;-44
2022/04/07 00:09:55;;;;;;;7.20;2.30;;;22.40;48.60;;;;;;6296699;27;20044;-44
2022/04/07 00:12:57;;;;;;;8.38;2.40;;;22.30;48.60;;;;;;6285689;27;20104;-45
2022/04/07 00:16:00;;;;;;;7.88;2.50;;;22.40;48.70;;;;;;6282779;28;20043;-42
2022/04/07 00:19:01;;;;;;;11.98;2.83;;;22.30;48.70;;;;;;6281284;28;20831;-44
2022/04/07 00:22:03;;;;;;;10.40;3.28;;;22.40;48.90;;;;;;6290843;28;20047;-47
2022/04/07 00:25:06;;;;;;;9.25;3.30;;;22.40;49.00;;;;;;6296902;28;20048;-46
2022/04/07 00:28:07;;;;;;;10.18;2.85;;;22.40;48.90;;;;;;6274417;28;20109;-44
2022/04/07 00:31:11;;;;;;;10.63;3.08;;;22.20;48.90;;;;;;6277209;27;20915;-46
2022/04/07 00:34:12;;;;;;;9.88;2.53;;;22.30;49.00;;;;;;6257798;28;20090;-42
2022/04/07 00:37:14;;;;;;;9.90;3.13;;;22.30;49.00;;;;;;6295234;27;20044;-45
2022/04/07 00:40:18;;;;;;;9.15;2.63;;;22.20;49.00;;;;;;6277146;27;20082;-44
2022/04/07 00:43:33;;;;;;;10.93;2.85;;;22.50;49.10;;;;;;6293514;27;20043;-47
2022/04/07 00:46:35;;;;;;;8.20;2.55;;;22.40;49.20;;;;;;6284929;27;20232;-45
2022/04/07 00:49:37;;;;;;;8.32;3.08;;;22.40;49.20;;;;;;6265970;27;20051;-43
2022/04/07 00:52:41;;;;;;;7.55;2.85;;;22.20;49.00;;;;;;6278964;28;20138;-43
2022/04/07 00:55:43;;;;;;;6.85;2.15;;;22.40;49.20;;;;;;6262488;28;20223;-44
2022/04/07 00:58:45;;;;;;;5.60;2.20;;;22.40;49.30;;;;;;6269350;28;20720;-43
2022/04/07 01:01:47;;;;;;;5.53;1.95;;;22.40;49.30;;;;;;6261323;28;20467;-45
2022/04/07 01:04:50;;;;;;;6.13;1.80;;;22.30;49.80;;;;;;6285194;27;20057;-43
2022/04/07 01:07:51;;;;;;;;;;;22.30;49.30;;;;;;6294243;27;20042;-43
2022/04/07 01:10:53;;;;;;;5.47;1.52;;;22.30;49.30;;;;;;6291222;27;20218;-44
2022/04/07 01:13:55;;;;;;;2.35;1.30;;;22.50;49.30;;;;;;6287477;27;20420;-43
2022/04/07 01:16:56;;;;;;;;;;;22.30;49.30;;;;;;6277768;28;20036;-43
2022/04/07 01:19:58;;;;;;;6.85;1.40;;;22.30;49.40;;;;;;6269725;28;20067;-42
2022/04/07 01:23:00;;;;;;;4.30;1.33;;;22.20;49.30;;;;;;6282398;27;20044;-43
2022/04/07 01:26:02;;;;;;;5.72;1.30;;;22.30;49.50;;;;;;6290910;28;20559;-43
2022/04/07 01:29:05;;;;;;;5.18;1.65;;;22.10;49.50;;;;;;6277631;28;20043;-43
2022/04/07 01:32:11;;;;;;;3.75;1.10;;;22.20;49.70;;;;;;6285091;28;20090;-43
2022/04/07 01:35:13;;;;;;;3.63;1.40;;;22.10;49.70;;;;;;6281152;28;20164;-42
2022/04/07 01:38:16;;;;;;;3.75;0.98;;;22.30;49.70;;;;;;6275239;27;20820;-43
2022/04/07 01:41:21;;;;;;;2.85;0.98;;;22.10;49.80;;;;;;6276788;28;20040;-43
2022/04/07 01:44:23;;;;;;;2.83;1.00;;;22.30;49.80;;;;;;6288033;28;20517;-43
2022/04/07 01:47:25;;;;;;;2.35;1.05;;;22.20;49.70;;;;;;6264012;28;20411;-43
2022/04/07 01:50:28;;;;;;;2.15;0.90;;;22.30;49.80;;;;;;6277420;28;20047;-45
2022/04/07 01:53:30;;;;;;;2.97;0.90;;;22.30;49.80;;;;;;6290020;28;20337;-46
2022/04/07 01:56:34;;;;;;;2.58;0.68;;;22.20;49.70;;;;;;6273855;28;20484;-43
2022/04/07 01:59:36;;;;;;;1.88;0.70;;;22.30;49.70;;;;;;6275765;28;20610;-43
2022/04/07 02:02:37;;;;;;;1.75;0.63;;;22.30;49.80;;;;;;6273025;28;20086;-44
2022/04/07 02:05:39;;;;;;;1.55;0.60;;;22.20;50.30;;;;;;6286806;28;20039;-47
2022/04/07 02:08:40;;;;;;;1.73;0.70;;;22.10;49.70;;;;;;6268554;28;20152;-42
2022/04/07 02:11:44;;;;;;;1.92;0.82;;;22.20;49.80;;;;;;6283357;28;20425;-43
2022/04/07 02:14:47;;;;;;;2.28;0.82;;;22.10;49.80;;;;;;6292861;27;20823;-43
2022/04/07 02:17:48;;;;;;;1.33;0.70;;;22.20;49.90;;;;;;6276391;27;20122;-44
2022/04/07 02:20:49;;;;;;;;;;;22.20;49.90;;;;;;6277281;28;20083;-45
2022/04/07 02:23:52;;;;;;;1.23;0.40;;;22.20;49.90;;;;;;6292536;28;19967;-46
2022/04/07 02:26:54;;;;;;;1.73;0.75;;;22.20;49.90;;;;;;6258280;28;20048;-43
2022/04/07 02:29:56;;;;;;;1.00;0.45;;;22.20;50.00;;;;;;6278875;28;20217;-46
2022/04/07 02:32:57;;;;;;;1.40;0.55;;;22.10;50.10;;;;;;6285740;27;20032;-45
2022/04/07 02:35:59;;;;;;;1.25;0.60;;;22.20;50.10;;;;;;6290050;27;20447;-43
2022/04/07 02:39:00;;;;;;;2.42;0.40;;;22.10;50.00;;;;;;6270440;28;20320;-44
2022/04/07 02:42:08;;;;;;;1.35;0.60;;;22.10;50.10;;;;;;6271353;28;20606;-43
2022/04/07 02:45:10;;;;;;;1.63;0.40;;;22.10;50.10;;;;;;6295328;27;20801;-44
2022/04/07 02:48:11;;;;;;;1.13;0.40;;;22.20;50.10;;;;;;6282705;27;20639;-43
2022/04/07 02:51:13;;;;;;;1.17;0.50;;;22.10;50.10;;;;;;6248633;28;20190;-43
2022/04/07 02:54:14;;;;;;;1.52;0.45;;;22.10;50.00;;;;;;6270568;28;20367;-44
2022/04/07 02:57:20;;;;;;;;;;;22.10;50.00;;;;;;6278297;27;20478;-43
2022/04/07 03:00:22;;;;;;;1.88;0.50;;;22.20;50.00;;;;;;6281664;28;19961;-43
2022/04/07 03:03:23;;;;;;;;;;;22.10;49.90;;;;;;6277427;27;20042;-43
2022/04/07 03:06:25;;;;;;;0.68;0.35;;;22.10;49.80;;;;;;6275856;28;19966;-43
2022/04/07 03:09:26;;;;;;;1.30;0.55;;;22.10;49.80;;;;;;6261252;28;20067;-42
2022/04/07 03:12:29;;;;;;;1.42;0.60;;;22.10;49.80;;;;;;6278033;28;20045;-43
2022/04/07 03:15:30;;;;;;;1.08;0.30;;;22.10;49.80;;;;;;6278336;28;20465;-43
2022/04/07 03:18:31;;;;;;;;;;;22.10;49.80;;;;;;6289915;27;20366;-43
2022/04/07 03:21:33;;;;;;;1.50;0.30;;;22.00;49.70;;;;;;6273347;28;20133;-44
2022/04/07 03:24:34;;;;;;;1.05;0.40;;;22.00;49.60;;;;;;6267804;28;20043;-43
2022/04/07 03:27:40;;;;;;;0.88;0.30;;;22.10;49.70;;;;;;6270986;28;20331;-43
2022/04/07 03:30:41;;;;;;;0.70;0.40;;;22.10;49.70;;;;;;6285608;27;20070;-44
2022/04/07 03:33:44;;;;;;;0.73;0.28;;;22.10;49.70;;;;;;6277831;27;20044;-45
2022/04/07 03:36:46;;;;;;;1.17;0.30;;;22.10;49.70;;;;;;6274620;28;20865;-45
2022/04/07 03:39:49;;;;;;;0.98;0.50;;;22.00;49.60;;;;;;6276647;27;20414;-44
2022/04/07 03:42:52;;;;;;;0.82;0.32;;;22.10;49.70;;;;;;6267447;27;20052;-43
2022/04/07 03:45:54;;;;;;;1.10;0.50;;;22.10;49.70;;;;;;6284815;27;20035;-44
2022/04/07 03:48:56;;;;;;;1.33;0.70;;;22.10;49.60;;;;;;6277507;27;20841;-43
2022/04/07 03:51:57;;;;;;;;;;;22.00;49.60;;;;;;6271206;28;20549;-43
2022/04/07 03:54:59;;;;;;;1.23;0.40;;;22.10;49.70;;;;;;6279936;28;19927;-43
2022/04/07 03:58:01;;;;;;;0.73;0.40;;;22.10;50.20;;;;;;6291793;27;20963;-43
2022/04/07 04:01:03;;;;;;;0.75;0.30;;;22.10;49.60;;;;;;6276203;28;20120;-42
2022/04/07 04:04:05;;;;;;;1.85;0.50;;;22.10;49.70;;;;;;6286206;27;20488;-43
2022/04/07 04:07:06;;;;;;;0.90;0.45;;;22.10;49.70;;;;;;6273373;28;20036;-43
2022/04/07 04:10:08;;;;;;;;;;;22.00;49.70;;;;;;6282412;27;20420;-44
2022/04/07 04:13:10;;;;;;;2.35;0.55;;;22.10;49.80;;;;;;6271229;28;20085;-43
2022/04/07 04:16:14;;;;;;;2.15;0.80;;;21.90;49.60;;;;;;6275460;27;20835;-43
2022/04/07 04:19:16;;;;;;;2.55;0.60;;;22.00;49.70;;;;;;6266132;28;20048;-43
2022/04/07 04:22:18;;;;;;;2.50;0.60;;;22.10;49.90;;;;;;6281196;27;20058;-43
2022/04/07 04:25:19;;;;;;;2.10;0.73;;;22.00;49.90;;;;;;6273661;28;21318;-42
2022/04/07 04:28:21;;;;;;;;;;;22.00;49.90;;;;;;6296274;28;20048;-47
2022/04/07 04:31:24;;;;;;;3.42;1.02;;;22.10;50.10;;;;;;6269732;28;19924;-44
2022/04/07 04:34:26;;;;;;;2.75;0.88;;;22.00;49.80;;;;;;6284111;27;20344;-43
2022/04/07 04:37:28;;;;;;;2.85;0.90;;;22.00;49.90;;;;;;6285284;27;20267;-44
2022/04/07 04:40:29;;;;;;;3.97;1.23;;;22.00;50.00;;;;;;6275516;27;20162;-43
2022/04/07 04:43:31;;;;;;;;;;;22.00;50.10;;;;;;6285525;27;20112;-44
2022/04/07 04:46:33;;;;;;;5.70;1.38;;;22.10;50.60;;;;;;6264327;27;20349;-43
2022/04/07 04:49:34;;;;;;;3.30;0.90;;;22.00;50.00;;;;;;6273963;27;20043;-44
2022/04/07 04:52:36;;;;;;;;;;;22.00;50.20;;;;;;6264444;28;20143;-43
2022/04/07 04:55:37;;;;;;;2.25;0.80;;;22.10;50.30;;;;;;6284540;28;20353;-43
2022/04/07 04:58:39;;;;;;;3.45;0.85;;;22.00;50.20;;;;;;6275258;27;20150;-45
2022/04/07 05:01:41;;;;;;;2.05;0.93;;;22.10;50.40;;;;;;6268771;27;20794;-43
2022/04/07 05:04:42;;;;;;;2.42;0.80;;;22.00;50.40;;;;;;6272593;27;21405;-43
2022/04/07 05:07:44;;;;;;;2.35;1.00;;;22.00;50.50;;;;;;6276994;28;20042;-44
2022/04/07 05:10:45;;;;;;;;;;;22.00;50.60;;;;;;6276389;28;20112;-44
2022/04/07 05:13:48;;;;;;;3.03;1.23;;;22.00;50.60;;;;;;6279419;28;19958;-43
2022/04/07 05:16:49;;;;;;;2.30;0.85;;;22.00;50.50;;;;;;6276034;28;20151;-46
2022/04/07 05:19:51;;;;;;;2.38;0.90;;;22.00;50.60;;;;;;6264163;28;20117;-43
2022/04/07 05:22:52;;;;;;;1.95;0.70;;;22.00;50.80;;;;;;6270032;28;20088;-45
2022/04/07 05:25:54;;;;;;;1.98;0.80;;;21.90;50.80;;;;;;6289665;27;20163;-44
2022/04/07 05:28:56;;;;;;;;;;;22.00;50.90;;;;;;6279714;27;20138;-46
2022/04/07 05:31:57;;;;;;;;;;;22.00;51.00;;;;;;6259917;28;20458;-44
2022/04/07 05:35:05;;;;;;;;;;;21.90;50.80;;;;;;6256090;28;20100;-44
2022/04/07 05:38:06;;;;;;;;;;;22.00;50.80;;;;;;6261461;28;19941;-45
2022/04/07 05:41:07;;;;;;;;;;;21.90;50.70;;;;;;6276724;27;19924;-46
2022/04/07 05:44:09;;;;;;;;;;;21.90;50.60;;;;;;6271148;28;20445;-45
2022/04/07 05:47:11;;;;;;;;;;;22.10;50.60;;;;;;6268359;27;20016;-42
2022/04/07 05:50:12;;;;;;;;;;;21.90;50.50;;;;;;6280810;28;20019;-45
2022/04/07 05:53:14;;;;;;;;;;;22.10;50.50;;;;;;6268542;28;19919;-46
2022/04/07 05:56:16;;;;;;;;;;;22.10;50.40;;;;;;6266125;28;19928;-46
2022/04/07 05:59:18;;;;;;;;;;;22.10;50.30;;;;;;6277488;28;20041;-48
2022/04/07 06:02:19;;;;;;;;;;;22.10;50.30;;;;;;6285598;27;19980;-48
2022/04/07 06:05:20;;;;;;;;;;;22.20;50.40;;;;;;6269846;28;20030;-44
2022/04/07 06:08:22;;;;;;;;;;;22.20;50.20;;;;;;6261276;27;19970;-45
2022/04/07 06:11:23;;;;;;;;;;;22.10;50.10;;;;;;6259854;27;19928;-43
2022/04/07 06:14:25;;;;;;;;;;;22.20;50.10;;;;;;6256350;28;20046;-45
2022/04/07 06:17:31;;;;;;;;;;;22.10;50.00;;;;;;6273663;27;19927;-45
2022/04/07 06:20:33;;;;;;;;;;;22.20;49.90;;;;;;6273531;27;19927;-44
2022/04/07 06:23:34;;;;;;;;;;;22.00;49.80;;;;;;6266121;27;20038;-45
2022/04/07 06:26:35;;;;;;;;;;;22.30;49.80;;;;;;6243476;28;21187;-43
2022/04/07 06:29:37;;;;;;;;;;;22.10;49.70;;;;;;6242665;28;20031;-46
2022/04/07 06:32:39;;;;;;;;;;;22.30;49.80;;;;;;6244258;27;20054;-47
2022/04/07 06:35:40;;;;;;;;;;;22.30;49.70;;;;;;6218022;28;19929;-45
2022/04/07 06:38:42;;;;;;;;;;;22.30;49.60;;;;;;6219489;28;19927;-45
2022/04/07 06:41:44;;;;;;;;;;;22.30;49.60;;;;;;6221438;27;19928;-45
2022/04/07 06:44:47;;;;;;;;;;;22.40;49.60;;;;;;6207283;27;19923;-43
2022/04/07 06:47:49;;;;;;;;;;;22.40;49.50;;;;;;6196816;27;19935;-45
2022/04/07 06:50:50;;;;;;;;;;;22.40;49.40;;;;;;6186767;27;19991;-49
2022/04/07 06:53:52;;;;;;;;;;;22.40;49.40;;;;;;6161300;27;20046;-44
2022/04/07 06:56:54;;;;;;;;;;;22.70;49.50;;;;;;6158477;27;19935;-46
2022/04/07 06:59:56;;;;;;;;;;;22.40;49.10;;;;;;6143102;27;20020;-43
2022/04/07 07:02:58;;;;;;;;;;;22.50;49.30;;;;;;6115873;27;19928;-43
2022/04/07 07:06:00;;;;;;;;;;;22.50;49.20;;;;;;6127434;27;19928;-46
2022/04/07 07:09:02;;;;;;;;;;;22.60;49.30;;;;;;6102679;27;20997;-47
2022/04/07 07:12:03;;;;;;;;;;;22.30;49.00;;;;;;6078426;27;19927;-48
2022/04/07 07:15:05;;;;;;;;;;;22.60;49.20;;;;;;6107144;27;19928;-46
2022/04/07 07:18:07;;;;;;;;;;;22.60;49.00;;;;;;6120553;27;21085;-46
2022/04/07 07:21:08;;;;;;;;;;;22.60;49.60;;;;;;6104722;27;20043;-46
2022/04/07 07:24:10;;;;;;;;;;;22.60;48.90;;;;;;6067132;27;19935;-45
2022/04/07 07:27:12;;;;;;;;;;;22.70;49.00;;;;;;6112728;27;21010;-47
2022/04/07 07:30:15;;;;;;;;;;;22.70;48.80;;;;;;6097492;27;20570;-45
2022/04/07 07:33:17;;;;;;;;;;;22.70;48.80;;;;;;6080721;27;19927;-47
2022/04/07 07:36:18;;;;;;;;;;;22.60;48.70;;;;;;6047924;27;19974;-46
2022/04/07 07:39:20;;;;;;;;;;;22.70;49.20;;;;;;6071247;27;19927;-46
2022/04/07 07:42:22;;;;;;;;;;;22.70;48.70;;;;;;6031312;27;20057;-46
2022/04/07 07:45:25;;;;;;;;;;;22.70;48.60;;;;;;6018706;28;19935;-46
2022/04/07 07:48:46;;;;;;;;;;;22.70;48.70;;;;;;6079549;27;19934;-47
2022/04/07 07:51:51;;;;;;;;;;;22.70;48.60;;;;;;6035944;28;20161;-45
2022/04/07 07:54:53;;;;;;;;;;;22.80;48.50;;;;;;6068092;27;20013;-46
2022/04/07 07:57:54;;;;;;;;;;;22.90;48.50;;;;;;6075872;27;20995;-45
2022/04/07 08:00:56;;;;;;;;;;;22.90;48.30;;;;;;6014697;27;19974;-45
2022/04/07 08:03:58;;;;;;;;;;;23.00;48.40;;;;;;6008975;27;20549;-45
2022/04/07 08:07:00;;;;;;;;;;;23.00;48.20;;;;;;6041984;27;21413;-46
2022/04/07 08:10:02;;;;;;;;;;;23.10;48.20;;;;;;6043781;28;22007;-48
2022/04/07 08:13:03;;;;;;;;;;;23.10;48.20;;;;;;5974891;27;19927;-47
2022/04/07 08:16:05;;;;;;;;;;;23.10;48.20;;;;;;6038217;27;19935;-45
2022/04/07 08:19:09;;;;;;;;;;;23.10;48.20;;;;;;6046020;28;19934;-43
2022/04/07 08:22:10;;;;;;;;;;;23.20;48.10;;;;;;6073272;27;19928;-44
2022/04/07 08:25:11;;;;;;;;;;;23.20;48.20;;;;;;6033148;28;19928;-49
2022/04/07 08:28:13;;;;;;;;;;;23.20;48.10;;;;;;6046615;27;19928;-48
2022/04/07 08:31:15;;;;;;;;;;;23.10;48.00;;;;;;6044684;27;19927;-51
2022/04/07 08:34:16;;;;;;;;;;;23.10;48.00;;;;;;6069452;27;19928;-45
2022/04/07 08:37:18;;;;;;;;;;;23.10;48.00;;;;;;6067515;27;20195;-47
2022/04/07 08:40:21;;;;;;;;;;;23.20;48.00;;;;;;6022764;27;19928;-46
2022/04/07 08:43:23;;;;;;;;;;;23.20;48.00;;;;;;6032214;27;20066;-46
2022/04/07 08:46:26;;;;;;;;;;;23.20;48.00;;;;;;6026583;28;19967;-46
2022/04/07 08:49:28;;;;;;;;;;;23.30;48.10;;;;;;6033497;28;19935;-46
2022/04/07 08:52:30;;;;;;;;;;;23.30;47.90;;;;;;6035968;27;19928;-45
2022/04/07 08:55:32;;;;;;;;;;;23.30;48.00;;;;;;6079592;27;20658;-46
2022/04/07 08:58:33;;;;;;;;;;;23.30;47.90;;;;;;6014847;27;19928;-47
2022/04/07 09:01:35;;;;;;;;;;;23.30;47.90;;;;;;6028139;27;21204;-45
2022/04/07 09:04:37;;;;;;;;;;;23.30;47.80;;;;;;5994051;27;19927;-44
2022/04/07 09:07:39;;;;;;;;;;;23.30;47.80;;;;;;6061851;27;21549;-45
2022/04/07 09:10:40;;;;;;;;;;;23.40;47.80;;;;;;6054831;27;19928;-47
2022/04/07 09:13:42;;;;;;;;;;;23.40;47.80;;;;;;6071687;27;20012;-46
2022/04/07 09:16:44;;;;;;;;;;;23.40;47.80;;;;;;6058416;28;25002;-49
2022/04/07 09:19:49;;;;;;;;;;;23.40;48.00;;;;;;6063025;28;21870;-45
2022/04/07 09:22:58;;;;;;;;;;;23.40;47.70;;;;;;6062241;27;19981;-46
2022/04/07 09:26:00;;;;;;;;;;;23.40;47.70;;;;;;6043010;27;20058;-49
2022/04/07 09:29:11;;;;;;;;;;;23.50;47.90;;;;;;6062098;28;19932;-46
2022/04/07 09:32:18;;;;;;;;;;;23.50;47.70;;;;;;6062187;27;22024;-46
2022/04/07 09:35:21;;;;;;;;;;;23.50;47.70;;;;;;6019220;27;19928;-48
2022/04/07 09:38:23;;;;;;;;;;;23.40;47.60;;;;;;6051573;27;20004;-47
2022/04/07 09:41:27;;;;;;;;;;;23.50;47.60;;;;;;6062561;27;20057;-47
2022/04/07 09:44:37;;;;;;;;;;;23.60;47.60;;;;;;6055048;27;20491;-47
2022/04/07 09:47:40;;;;;;;;;;;23.60;47.50;;;;;;6069292;27;19928;-51
2022/04/07 09:50:41;;;;;;;;;;;23.50;47.40;;;;;;6084449;27;19935;-49
2022/04/07 09:53:43;;;;;;;;;;;23.70;47.50;;;;;;6051018;28;19936;-46
2022/04/07 09:56:51;;;;;;;;;;;23.70;47.50;;;;;;6083050;27;20760;-46
2022/04/07 09:59:54;;;;;;;;;;;23.70;47.40;;;;;;6025308;27;20830;-45
2022/04/07 10:02:57;;;;;;;;;;;23.70;47.40;;;;;;6039469;28;21058;-49
2022/04/07 10:05:59;;;;;;;;;;;23.90;47.50;;;;;;6069837;27;24995;-45
2022/04/07 10:09:02;;;;;;;;;;;23.70;47.40;;;;;;6048259;27;19928;-46
2022/04/07 10:12:04;;;;;;;;;;;23.70;47.40;;;;;;6066728;27;19935;-46
2022/04/07 10:15:06;;;;;;;;;;;23.60;47.40;;;;;;6084485;27;20069;-45
2022/04/07 10:18:14;;;;;;;;;;;23.70;47.50;;;;;;6067770;27;20054;-44
2022/04/07 10:21:22;;;;;;;;;;;23.70;47.50;;;;;;6096336;27;19971;-47
2022/04/07 10:24:30;;;;;;;;;;;23.70;47.50;;;;;;6115377;27;20850;-48
2022/04/07 10:27:52;;;;;;;;;;;23.60;47.40;;;;;;6124085;27;20035;-47
2022/04/07 10:30:54;;;;;;;;;;;23.70;47.60;;;;;;6087272;27;19934;-46
2022/04/07 10:34:05;;;;;;;;;;;23.70;47.50;;;;;;6140905;27;19935;-47
2022/04/07 10:37:06;;;;;;;;;;;23.70;47.60;;;;;;6138588;28;20567;-46
2022/04/07 10:40:21;;;;;;;;;;;23.70;47.50;;;;;;6099540;27;20102;-49
2022/04/07 10:43:25;;;;;;;;;;;23.70;47.60;;;;;;6164629;27;19934;-45
2022/04/07 10:46:26;;;;;;;;;;;23.50;47.50;;;;;;6165308;27;20663;-45
2022/04/07 10:49:29;;;;;;;;;;;23.60;47.60;;;;;;6179460;27;19928;-48
2022/04/07 10:52:31;;;;;;;;;;;23.60;47.60;;;;;;6160291;27;19966;-47
2022/04/07 10:55:52;;;;;;;;;;;23.40;47.50;;;;;;6134832;28;20470;-46
2022/04/07 10:58:55;;;;;;;;;;;23.50;47.60;;;;;;6157298;28;20915;-47
2022/04/07 11:01:57;;;;;;;;;;;23.40;47.50;;;;;;6156565;28;19928;-46
2022/04/07 11:05:04;;;;;;;;;;;23.70;47.70;;;;;;6184083;27;20069;-45
2022/04/07 11:08:06;;;;;;;;;;;23.60;47.60;;;;;;6195510;27;19936;-47
2022/04/07 11:11:07;;;;;;;;;;;23.50;47.60;;;;;;6178242;27;19944;-49
2022/04/07 11:14:09;;;;;;;;;;;23.30;47.40;;;;;;6182203;27;19927;-47
2022/04/07 11:17:14;;;;;;;;;;;23.60;47.60;;;;;;6199721;27;19927;-48
2022/04/07 11:20:17;;;;;;;;;;;23.60;47.50;;;;;;6161582;28;19974;-48
2022/04/07 11:23:37;;;;;;;;;;;23.50;47.30;;;;;;6159681;28;21124;-45
2022/04/07 11:26:39;;;;;;;;;;;23.60;47.40;;;;;;6172016;27;21870;-45
2022/04/07 11:29:40;;;;;;;;;;;23.60;47.30;;;;;;6163577;27;20111;-45
2022/04/07 11:32:56;;;;;;;;;;;23.60;47.30;;;;;;6153689;28;20042;-46
2022/04/07 11:36:11;;;;;;;;;;;23.70;47.40;;;;;;6118752;28;19928;-44
2022/04/07 11:39:14;;;;;;;;;;;23.60;47.20;;;;;;6170926;27;19959;-46
2022/04/07 11:42:17;;;;;;;;;;;23.70;47.80;;;;;;6179060;27;19928;-45
2022/04/07 11:45:19;;;;;;;;;;;23.50;47.10;;;;;;6133240;27;19928;-48
2022/04/07 11:48:22;;;;;;;;;;;23.70;47.20;;;;;;6174908;27;20046;-46
2022/04/07 11:51:25;;;;;;;;;;;23.80;47.20;;;;;;6141962;27;22808;-46
2022/04/07 11:54:27;;;;;;;;;;;23.80;47.10;;;;;;6147199;27;21540;-44
2022/04/07 11:57:29;;;;;;;;;;;23.90;47.20;;;;;;6129647;27;19928;-46
2022/04/07 12:00:31;;;;;;;;;;;23.80;47.10;;;;;;6068999;27;23376;-45
2022/04/07 12:03:33;;;;;;;;;;;23.70;47.00;;;;;;6067741;27;19971;-45
2022/04/07 12:06:35;;;;;;;;;;;23.80;47.10;;;;;;6076597;27;19928;-45
2022/04/07 12:09:37;;;;;;;;;;;23.80;47.00;;;;;;6015361;27;19928;-44
2022/04/07 12:12:39;;;;;;;;;;;23.80;47.10;;;;;;6100838;27;19934;-44
2022/04/07 12:15:41;;;;;;;;;;;23.80;46.50;;;;;;6071472;27;20627;-45
2022/04/07 12:18:51;;;;;;;;;;;23.80;47.00;;;;;;6042165;27;20054;-45
2022/04/07 12:21:54;;;;;;;;;;;23.80;47.10;;;;;;6104327;27;20038;-44
2022/04/07 12:25:00;;;;;;;;;;;23.90;47.00;;;;;;6082003;27;19934;-44
2022/04/07 12:28:09;;;;;;;;;;;23.80;47.00;;;;;;6072133;27;19941;-43
2022/04/07 12:31:12;;;;;;;;;;;23.80;46.90;;;;;;6067816;27;19928;-45
2022/04/07 12:34:17;;;;;;;;;;;23.80;47.10;;;;;;6049591;28;20057;-45
2022/04/07 12:37:26;;;;;;;;;;;23.80;46.90;;;;;;6007857;27;19928;-46
2022/04/07 12:40:28;;;;;;;;;;;23.80;46.80;;;;;;6041354;27;19935;-46
2022/04/07 12:43:41;;;;;;;;;;;23.90;46.80;;;;;;6043233;27;20005;-48
2022/04/07 12:46:47;;;;;;;;;;;23.90;46.90;;;;;;6036684;27;19927;-49
2022/04/07 12:49:57;;;;;;;;;;;23.80;46.70;;;;;;6018418;28;20044;-48
2022/04/07 12:52:59;;;;;;;;;;;23.90;46.70;;;;;;6033553;28;19927;-46
2022/04/07 12:56:17;;;;;;;;;;;23.90;46.70;;;;;;5993180;28;21705;-49
2022/04/07 12:59:20;;;;;;;;;;;23.90;46.70;;;;;;6060774;27;19927;-46
2022/04/07 13:02:23;;;;;;;;;;;24.00;46.70;;;;;;6050168;27;19928;-49
2022/04/07 13:05:25;;;;;;;;;;;23.90;46.10;;;;;;6055857;27;19928;-46
2022/04/07 13:08:27;;;;;;;;;;;23.80;46.70;;;;;;6047217;28;20046;-46
2022/04/07 13:11:31;;;;;;;;;;;23.90;46.80;;;;;;6049310;27;20644;-47
2022/04/07 13:14:34;;;;;;;;;;;23.90;46.80;;;;;;6050227;27;20613;-48
2022/04/07 13:17:35;;;;;;;;;;;23.80;46.80;;;;;;6040173;27;20020;-46
2022/04/07 13:20:37;;;;;;;;;;;23.90;47.50;;;;;;6046305;28;19934;-44
2022/04/07 13:23:38;;;;;;;;;;;23.90;46.90;;;;;;6073020;27;19931;-45
2022/04/07 13:26:41;;;;;;;;;;;23.70;46.80;;;;;;6071546;27;20021;-46
2022/04/07 13:29:43;;;;;;;;;;;23.80;46.90;;;;;;6044742;28;19928;-47
2022/04/07 13:32:44;;;;;;;;;;;23.80;46.80;;;;;;6057109;27;19979;-46
2022/04/07 13:35:46;;;;;;;;;;;23.80;46.80;;;;;;6055099;28;19928;-45
2022/04/07 13:38:47;;;;;;;;;;;23.90;46.80;;;;;;6076669;27;20201;-45
2022/04/07 13:41:49;;;;;;;;;;;23.80;46.70;;;;;;6100527;27;19928;-45
2022/04/07 13:44:51;;;;;;;;;;;23.70;46.60;;;;;;6100124;27;19996;-46
2022/04/07 13:47:53;;;;;;;;;;;23.80;46.70;;;;;;6050809;28;19949;-48
2022/04/07 13:50:54;;;;;;;;;;;23.80;46.80;;;;;;6062423;27;20008;-46
2022/04/07 13:53:56;;;;;;;;;;;23.80;46.70;;;;;;6045343;27;19932;-47
2022/04/07 13:56:58;;;;;;;;;;;23.70;46.60;;;;;;6005465;28;19934;-49
2022/04/07 14:00:00;;;;;;;;;;;23.80;46.60;;;;;;6053120;27;19934;-47
2022/04/07 14:03:01;;;;;;;;;;;23.80;46.50;;;;;;6048746;27;19928;-46
2022/04/07 14:06:03;;;;;;;;;;;23.80;46.50;;;;;;6018394;27;22061;-51
2022/04/07 14:09:06;;;;;;;;;;;23.90;46.50;;;;;;6043576;27;19935;-51
2022/04/07 14:12:09;;;;;;;;;;;23.80;46.50;;;;;;6039452;27;19928;-47
2022/04/07 14:15:10;;;;;;;;;;;23.70;46.30;;;;;;6063459;27;20042;-48
2022/04/07 14:18:12;;;;;;;;;;;23.90;46.40;;;;;;6081223;27;21300;-47
2022/04/07 14:21:14;;;;;;;;;;;23.80;46.30;;;;;;6058713;28;20000;-44
2022/04/07 14:24:16;;;;;;;;;;;23.80;46.30;;;;;;6073440;28;19928;-49
2022/04/07 14:27:18;;;;;;;;;;;23.80;46.30;;;;;;6056630;27;19934;-48
2022/04/07 14:30:20;;;;;;;;;;;23.90;46.30;;;;;;6081083;27;20497;-45
2022/04/07 14:33:21;;;;;;;;;;;23.80;46.30;;;;;;6057049;28;20058;-47
2022/04/07 14:36:23;;;;;;;;;;;23.80;46.20;;;;;;6077826;27;19934;-49
2022/04/07 14:39:24;;;;;;;;;;;24.10;46.50;;;;;;6085338;27;20020;-47
2022/04/07 14:42:26;;;;;;;;;;;23.90;46.40;;;;;;6091465;27;19927;-44
2022/04/07 14:45:28;;;;;;;;;;;24.00;46.50;;;;;;6038116;27;20004;-47
2022/04/07 14:48:29;;;;;;;;;;;23.90;46.30;;;;;;6067114;27;19997;-47
2022/04/07 14:51:32;;;;;;;;;;;23.90;46.10;;;;;;6044467;27;19935;-47
2022/04/07 14:54:33;;;;;;;;;;;23.90;46.20;;;;;;6056973;27;19931;-46
2022/04/07 14:57:37;;;;;;;;;;;24.00;46.30;;;;;;6068909;27;19934;-47
2022/04/07 15:00:39;;;;;;;;;;;23.90;46.00;;;;;;6051688;27;19928;-45
2022/04/07 15:03:41;;;;;;;;;;;24.20;46.00;;;;;;5970093;27;20026;-52
2022/04/07 15:06:42;;;;;;;;;;;24.00;46.10;;;;;;6016466;27;19974;-48
2022/04/07 15:09:44;;;;;;;;;;;24.00;45.80;;;;;;6048867;27;20333;-46
2022/04/07 15:12:46;;;;;;;;;;;23.90;45.80;;;;;;6044173;27;22269;-46
2022/04/07 15:15:47;;;;;;;;;;;24.00;45.80;;;;;;6033937;27;19971;-45
2022/04/07 15:18:49;;;;;;;;;;;24.00;45.80;;;;;;6066450;27;19928;-47
2022/04/07 15:21:50;;;;;;;;;;;24.00;45.80;;;;;;6053170;27;19927;-47
2022/04/07 15:24:52;;;;;;;;;;;24.00;45.80;;;;;;6035255;28;20543;-48
2022/04/07 15:27:54;;;;;;;;;;;23.80;45.60;;;;;;6073838;27;20046;-45
2022/04/07 15:30:56;;;;;;;;;;;24.00;45.70;;;;;;6057131;28;19959;-49
2022/04/07 15:33:58;;;;;;;;;;;24.10;45.80;;;;;;6076268;27;19928;-47
2022/04/07 15:36:59;;;;;;;;;;;24.10;45.60;;;;;;6077437;27;19943;-45
2022/04/07 15:40:00;;;;;;;;;;;24.10;45.60;;;;;;6064871;27;19928;-44
2022/04/07 15:43:03;;;;;;;;;;;24.00;45.60;;;;;;6099123;27;21040;-46
2022/04/07 15:46:04;;;;;;;;;;;24.10;45.60;;;;;;6093451;27;20045;-45
2022/04/07 15:49:06;;;;;;;;;;;24.00;45.60;;;;;;6128675;27;20047;-49
2022/04/07 15:52:09;;;;;;;;;;;24.00;45.60;;;;;;6077174;27;19928;-46
2022/04/07 15:55:10;;;;;;;;;;;24.00;45.70;;;;;;6121991;27;21277;-47
2022/04/07 15:58:13;;;;;;;;;;;24.00;45.60;;;;;;6129256;27;21278;-48
2022/04/07 16:01:14;;;;;;;;;;;24.00;45.60;;;;;;6144793;27;20093;-46
2022/04/07 16:04:16;;;;;;;;;;;24.00;45.60;;;;;;6132230;28;19934;-46
2022/04/07 16:07:20;;;;;;;;;;;24.10;45.60;;;;;;6135825;28;19928;-47
2022/04/07 16:10:22;;;;;;;;;;;24.00;45.60;;;;;;6141231;27;19932;-48
2022/04/07 16:13:24;;;;;;;;;;;24.00;45.50;;;;;;6143972;28;20068;-46
2022/04/07 16:16:25;;;;;;;;;;;24.00;45.60;;;;;;6174453;27;21034;-44
2022/04/07 16:19:27;;;;;;;;;;;24.00;45.60;;;;;;6180192;27;19934;-46
2022/04/07 16:22:29;;;;;;;;;;;23.80;45.50;;;;;;6188345;27;19928;-45
2022/04/07 16:25:30;;;;;;;;;;;24.00;45.60;;;;;;6204242;27;19979;-53
2022/04/07 16:28:32;;;;;;;;;;;24.00;45.60;;;;;;6199511;27;19935;-47
2022/04/07 16:31:34;;;;;;;;;;;23.90;45.40;;;;;;6200302;28;20058;-46
2022/04/07 16:34:35;;;;;;;;;;;24.10;45.50;;;;;;6200697;27;19928;-45
2022/04/07 16:37:37;;;;;;;;;;;24.00;45.40;;;;;;6222003;27;21259;-47
2022/04/07 16:40:38;;;;;;;;;;;23.80;45.10;;;;;;6227729;27;20028;-45
2022/04/07 16:43:42;;;;;;;;;;;23.90;45.20;;;;;;6220936;27;19928;-50
2022/04/07 16:46:43;;;;;;;;;;;24.00;45.20;;;;;;6214446;27;20028;-49
2022/04/07 16:49:44;;;;;;;;;;;24.00;45.40;;;;;;6199980;28;19931;-47
2022/04/07 16:52:46;;;;;;;;;;;24.00;45.30;;;;;;6209484;28;19927;-46
2022/04/07 16:55:47;;;;;;;;;;;24.00;45.30;;;;;;6221266;28;20041;-48
2022/04/07 16:58:49;;;;;;;;;;;24.00;45.20;;;;;;6213039;28;20008;-45
2022/04/07 17:01:51;;;;;;;;;;;24.00;45.20;;;;;;6230269;28;19927;-47
2022/04/07 17:04:54;;;;;;;;;;;24.00;45.20;;;;;;6211106;27;19928;-45
2022/04/07 17:07:55;;;;;;;;;;;24.00;45.20;;;;;;6209498;27;20481;-46